Etusivu
METAR-TAF:

METAR-TAF

Lentoasemat :

Constantine, Algeria

Leveyspiiri: 36-17N, Pituuspiiri: 006-37E, korkeus merenpinnasta: 694 m

Tämänhetkinen sää

Tämä raportti tehtiin 1 tunti ja 8 minuuttia sitten, kello 00.00 UTC
Tuuli 3 kn kaakosta
Lämpötila 14°C
Kosteus 94%
Ilmanpaine 1020 hPa
Näkyvyys 10 km tai enemmän
ei pilviä alle 1500 m:ssä eikä cumulonimbus-pilviä

METAR: DABC 180000Z 13003KT CAVOK 14/13 Q1020

Aika: 02:08 (01:08 UTC)

Sääennuste

Tämä raportti tehtiin 14 tuntia ja 8 minuuttia sitten, kello 11.00 UTC
Ennuste voimassa 17. päivästä klo 12 UTC - 18. päivään klo 12 UTC
Tuuli 8 kn pohjoisen/luoteesta
Näkyvyys 10 km tai enemmän
Muutamia pilviä 3000 ft:n korkeudessa
Todennäköisyys 30% :
Ajoittain
17. päivästä klo 12 UTC - 17. päivään klo 20 UTC
Muutamia pilviä 3000 ft:n korkeudessa, Kasvava cumulus-pilvi.

TAF: DABC 171100Z 1712/1812 34008KT 9999 FEW030 PROB30 TEMPO 1712/1720 FEW030TCU

Säähavainnot ja -ennusteet yli 4000 lentoasemalta (METAR- ja TAF-raportit).

Käytössä olevat sääasemat on merkitty karttaan keltaisilla ja punaisilla pisteillä.

Aseta hiiri pisteen päälle nähdäksesi sääaseman nimen.

Klikkaa sitten nähdäksesi säähavainnot ja -ennusteet.

Kartan vaihtaminen: klikkaa mustalla rastilla varustettuja vihreitä pisteitä, niin voit zoomata sisään; viivalla varustettua vihreää pistettä, niin voit zoomata ulos tai vihreitä nuolia, niin pääset viereisille kartoille.


METAR-TAF: